createdAt,value
2019-01-08T00:00:00.000Z,0.2
2019-01-08T00:05:00.000Z,0.2
2019-01-08T00:10:00.000Z,0.1
2019-01-08T00:15:00.000Z,0.2
2019-01-08T00:20:00.000Z,0.2
2019-01-08T00:25:00.000Z,0.3
2019-01-08T00:30:00.000Z,0.4
2019-01-08T00:35:00.000Z,0.6
2019-01-08T00:40:00.000Z,1.0
2019-01-08T00:45:00.000Z,1.4
2019-01-08T00:50:00.000Z,1.9
2019-01-08T00:55:00.000Z,2.4
2019-01-08T01:00:00.000Z,2.7
2019-01-08T01:05:00.000Z,2.9
2019-01-08T01:10:00.000Z,3.1
2019-01-08T01:15:00.000Z,3.2
2019-01-08T01:20:00.000Z,3.3
2019-01-08T01:25:00.000Z,3.3
2019-01-08T01:30:00.000Z,3.3
2019-01-08T01:35:00.000Z,3.4
2019-01-08T01:40:00.000Z,3.4
2019-01-08T01:45:00.000Z,3.4
2019-01-08T01:50:00.000Z,3.4
2019-01-08T01:55:00.000Z,3.5
2019-01-08T02:01:00.000Z,3.5
2019-01-08T02:06:00.000Z,3.5
2019-01-08T02:11:00.000Z,3.5
2019-01-08T02:16:00.000Z,3.5
2019-01-08T02:21:00.000Z,3.5
2019-01-08T02:26:00.000Z,3.5
2019-01-08T02:31:00.000Z,3.4
2019-01-08T02:36:00.000Z,3.4
2019-01-08T02:41:00.000Z,3.4
2019-01-08T02:46:00.000Z,3.4
2019-01-08T02:51:00.000Z,3.4
2019-01-08T02:56:00.000Z,3.4
2019-01-08T03:01:00.000Z,3.3
2019-01-08T03:06:00.000Z,3.3
2019-01-08T03:11:00.000Z,3.3
2019-01-08T03:16:00.000Z,3.3
2019-01-08T03:21:00.000Z,3.3
2019-01-08T03:26:00.000Z,3.3
2019-01-08T03:31:00.000Z,3.3
2019-01-08T03:36:00.000Z,3.3
2019-01-08T03:41:00.000Z,3.3
2019-01-08T03:46:00.000Z,3.3
2019-01-08T03:51:00.000Z,3.3
2019-01-08T03:56:00.000Z,3.3
2019-01-08T04:01:00.000Z,3.3
2019-01-08T04:06:00.000Z,3.4
2019-01-08T04:11:00.000Z,3.4
2019-01-08T04:16:00.000Z,3.4
2019-01-08T04:21:00.000Z,3.5
2019-01-08T04:26:00.000Z,3.5
2019-01-08T04:31:00.000Z,3.5
2019-01-08T04:36:00.000Z,3.6
2019-01-08T04:41:00.000Z,3.6
2019-01-08T04:46:00.000Z,3.6
2019-01-08T04:51:00.000Z,3.7
2019-01-08T04:56:00.000Z,3.7
2019-01-08T05:01:00.000Z,3.8
2019-01-08T05:06:00.000Z,3.9
2019-01-08T05:11:00.000Z,3.9
2019-01-08T05:16:00.000Z,3.9
2019-01-08T05:21:00.000Z,4.0
2019-01-08T05:26:00.000Z,4.0
2019-01-08T05:31:00.000Z,4.0
2019-01-08T05:36:00.000Z,3.9
2019-01-08T05:41:00.000Z,3.8
2019-01-08T05:46:00.000Z,3.7
2019-01-08T05:51:00.000Z,3.6
2019-01-08T05:56:00.000Z,3.6
2019-01-08T06:01:00.000Z,3.5
2019-01-08T06:06:00.000Z,3.5
2019-01-08T06:11:00.000Z,3.6
2019-01-08T06:16:00.000Z,3.6
2019-01-08T06:21:00.000Z,3.6
2019-01-08T06:26:00.000Z,3.6
2019-01-08T06:31:00.000Z,3.4
2019-01-08T06:36:00.000Z,3.2
2019-01-08T06:41:00.000Z,3.0
2019-01-08T06:46:00.000Z,2.8
2019-01-08T06:51:00.000Z,2.6
2019-01-08T06:56:00.000Z,2.4
2019-01-08T07:01:00.000Z,2.2
2019-01-08T07:06:00.000Z,2.1
2019-01-08T07:11:00.000Z,2.0
2019-01-08T07:16:00.000Z,1.9
2019-01-08T07:21:00.000Z,1.8
2019-01-08T07:26:00.000Z,1.8
2019-01-08T07:31:00.000Z,1.7
2019-01-08T07:36:00.000Z,1.7
2019-01-08T07:42:00.000Z,1.7
2019-01-08T07:47:00.000Z,1.7
2019-01-08T07:52:00.000Z,1.7
2019-01-08T07:57:00.000Z,1.7
2019-01-08T08:02:00.000Z,1.7
2019-01-08T08:07:00.000Z,1.7
2019-01-08T08:12:00.000Z,1.8
2019-01-08T08:17:00.000Z,1.8
2019-01-08T08:22:00.000Z,1.8
2019-01-08T08:27:00.000Z,1.8
2019-01-08T08:32:00.000Z,1.8
2019-01-08T08:37:00.000Z,1.8
2019-01-08T08:42:00.000Z,1.9
2019-01-08T08:47:00.000Z,1.9
2019-01-08T08:52:00.000Z,2.0
2019-01-08T08:57:00.000Z,2.1
2019-01-08T09:02:00.000Z,2.1
2019-01-08T09:07:00.000Z,2.1
2019-01-08T09:12:00.000Z,2.2
2019-01-08T09:17:00.000Z,2.3
2019-01-08T09:22:00.000Z,2.4
2019-01-08T09:27:00.000Z,2.6
2019-01-08T09:32:00.000Z,2.9
2019-01-08T09:37:00.000Z,3.2
2019-01-08T09:42:00.000Z,3.4
2019-01-08T09:47:00.000Z,3.6
2019-01-08T09:52:00.000Z,3.7
2019-01-08T09:57:00.000Z,3.8
2019-01-08T10:02:00.000Z,3.9
2019-01-08T10:07:00.000Z,4.0
2019-01-08T10:12:00.000Z,4.1
2019-01-08T10:17:00.000Z,4.2
2019-01-08T10:22:00.000Z,4.2
2019-01-08T10:27:00.000Z,4.2
2019-01-08T10:32:00.000Z,4.2
2019-01-08T10:37:00.000Z,4.2
2019-01-08T10:42:00.000Z,4.3
2019-01-08T10:47:00.000Z,4.4
2019-01-08T10:52:00.000Z,4.5
2019-01-08T10:57:00.000Z,4.5
2019-01-08T11:02:00.000Z,4.6
2019-01-08T11:07:00.000Z,4.7
2019-01-08T11:12:00.000Z,4.8
2019-01-08T11:17:00.000Z,4.9
2019-01-08T11:22:00.000Z,5.0
2019-01-08T11:27:00.000Z,5.1
2019-01-08T11:32:00.000Z,5.0
2019-01-08T11:37:00.000Z,5.0
2019-01-08T11:42:00.000Z,5.0
2019-01-08T11:47:00.000Z,5.0
2019-01-08T11:52:00.000Z,5.0
2019-01-08T11:57:00.000Z,5.1
2019-01-08T12:02:00.000Z,5.1
2019-01-08T12:07:00.000Z,5.2
2019-01-08T12:12:00.000Z,5.3
2019-01-08T12:17:00.000Z,5.3
2019-01-08T12:22:00.000Z,5.4
2019-01-08T12:27:00.000Z,5.5
2019-01-08T12:32:00.000Z,5.5
2019-01-08T12:37:00.000Z,5.6
2019-01-08T12:42:00.000Z,5.6
2019-01-08T12:47:00.000Z,5.5
2019-01-08T12:52:00.000Z,5.5
2019-01-08T12:57:00.000Z,5.5
2019-01-08T13:03:00.000Z,5.5
2019-01-08T13:08:00.000Z,5.4
2019-01-08T13:13:00.000Z,5.4
2019-01-08T13:18:00.000Z,5.5
2019-01-08T13:23:00.000Z,5.7
2019-01-08T13:28:00.000Z,5.8
2019-01-08T13:33:00.000Z,5.8
2019-01-08T13:38:00.000Z,5.9
2019-01-08T13:43:00.000Z,5.9
2019-01-08T13:48:00.000Z,5.8
2019-01-08T13:53:00.000Z,5.7
2019-01-08T13:58:00.000Z,5.6
2019-01-08T14:03:00.000Z,5.4
2019-01-08T14:08:00.000Z,5.4
2019-01-08T14:13:00.000Z,5.3
2019-01-08T14:18:00.000Z,5.3
2019-01-08T14:23:00.000Z,5.3
2019-01-08T14:28:00.000Z,5.3
2019-01-08T14:33:00.000Z,5.3
2019-01-08T14:38:00.000Z,5.3
2019-01-08T14:43:00.000Z,5.3
2019-01-08T14:48:00.000Z,5.2
2019-01-08T14:53:00.000Z,5.2
2019-01-08T14:58:00.000Z,5.1
2019-01-08T15:03:00.000Z,5.1
2019-01-08T15:08:00.000Z,5.1
2019-01-08T15:13:00.000Z,5.1
2019-01-08T15:18:00.000Z,5.0
2019-01-08T15:23:00.000Z,5.0
2019-01-08T15:28:00.000Z,5.0
2019-01-08T15:33:00.000Z,5.0
2019-01-08T15:38:00.000Z,5.0
2019-01-08T15:43:00.000Z,5.0
2019-01-08T15:48:00.000Z,5.0
2019-01-08T15:53:00.000Z,5.1
2019-01-08T15:58:00.000Z,5.1
2019-01-08T16:03:00.000Z,5.1
2019-01-08T16:08:00.000Z,5.0
2019-01-08T16:13:00.000Z,5.0
2019-01-08T16:18:00.000Z,5.0
2019-01-08T16:23:00.000Z,5.0
2019-01-08T16:28:00.000Z,5.0
2019-01-08T16:33:00.000Z,5.0
2019-01-08T16:38:00.000Z,5.0
2019-01-08T16:43:00.000Z,5.0
2019-01-08T16:48:00.000Z,5.0
2019-01-08T16:53:00.000Z,5.0
2019-01-08T16:58:00.000Z,5.0
2019-01-08T17:03:00.000Z,5.0
2019-01-08T17:08:00.000Z,5.0
2019-01-08T17:13:00.000Z,5.0
2019-01-08T17:18:00.000Z,5.0
2019-01-08T17:23:00.000Z,4.9
2019-01-08T17:28:00.000Z,4.9
2019-01-08T17:33:00.000Z,4.9
2019-01-08T17:38:00.000Z,4.9
2019-01-08T17:43:00.000Z,4.9
2019-01-08T17:48:00.000Z,4.8
2019-01-08T17:53:00.000Z,4.8
2019-01-08T17:58:00.000Z,4.8
2019-01-08T18:03:00.000Z,4.8
2019-01-08T18:08:00.000Z,4.9
2019-01-08T18:13:00.000Z,4.9
2019-01-08T18:18:00.000Z,4.9
2019-01-08T18:23:00.000Z,5.0
2019-01-08T18:28:00.000Z,5.0
2019-01-08T18:33:00.000Z,5.0
2019-01-08T18:38:00.000Z,5.1
2019-01-08T18:43:00.000Z,5.1
2019-01-08T18:49:00.000Z,5.1
2019-01-08T18:54:00.000Z,5.0
2019-01-08T18:59:00.000Z,5.0
2019-01-08T19:04:00.000Z,5.0
2019-01-08T19:09:00.000Z,5.0
2019-01-08T19:14:00.000Z,5.0
2019-01-08T19:19:00.000Z,4.9
2019-01-08T19:24:00.000Z,4.9
2019-01-08T19:29:00.000Z,4.9
2019-01-08T19:34:00.000Z,4.9
2019-01-08T19:39:00.000Z,4.9
2019-01-08T19:44:00.000Z,4.9
2019-01-08T19:49:00.000Z,4.9
2019-01-08T19:54:00.000Z,4.9
2019-01-08T19:59:00.000Z,4.9
2019-01-08T20:04:00.000Z,4.9
2019-01-08T20:09:00.000Z,4.9
2019-01-08T20:14:00.000Z,4.9
2019-01-08T20:19:00.000Z,4.9
2019-01-08T20:24:00.000Z,4.8
2019-01-08T20:29:00.000Z,4.8
2019-01-08T20:34:00.000Z,4.8
2019-01-08T20:39:00.000Z,4.8
2019-01-08T20:44:00.000Z,4.8
2019-01-08T20:49:00.000Z,4.8
2019-01-08T20:54:00.000Z,4.8
2019-01-08T20:59:00.000Z,4.8
2019-01-08T21:04:00.000Z,4.8
2019-01-08T21:09:00.000Z,4.8
2019-01-08T21:14:00.000Z,4.8
2019-01-08T21:19:00.000Z,4.9
2019-01-08T21:24:00.000Z,4.8
2019-01-08T21:29:00.000Z,4.9
2019-01-08T21:34:00.000Z,4.9
2019-01-08T21:39:00.000Z,4.9
2019-01-08T21:44:00.000Z,4.9
2019-01-08T21:49:00.000Z,4.8
2019-01-08T21:54:00.000Z,4.8
2019-01-08T21:59:00.000Z,4.8
2019-01-08T22:04:00.000Z,4.8
2019-01-08T22:09:00.000Z,4.7
2019-01-08T22:14:00.000Z,4.7
2019-01-08T22:19:00.000Z,4.7
2019-01-08T22:24:00.000Z,4.7
2019-01-08T22:29:00.000Z,4.8
2019-01-08T22:34:00.000Z,4.8
2019-01-08T22:40:00.000Z,4.8
2019-01-08T22:45:00.000Z,4.8
2019-01-08T22:50:00.000Z,4.8
2019-01-08T22:55:00.000Z,4.8
2019-01-08T23:00:00.000Z,4.8
2019-01-08T23:05:00.000Z,4.9
2019-01-08T23:10:00.000Z,4.8
2019-01-08T23:15:00.000Z,4.8
2019-01-08T23:20:00.000Z,4.8
2019-01-08T23:25:00.000Z,4.8
2019-01-08T23:30:00.000Z,4.8
2019-01-08T23:35:00.000Z,4.8
2019-01-08T23:40:00.000Z,4.8
2019-01-08T23:45:00.000Z,4.8
2019-01-08T23:50:00.000Z,4.8
2019-01-08T23:55:00.000Z,4.8
